createdAt,value
2022-09-21T03:31:26.482Z,73.58
2022-09-21T03:36:24.124Z,73.62
2022-09-21T03:41:20.964Z,73.91
2022-09-21T03:46:17.335Z,74.07
2022-09-21T03:51:14.371Z,73.36
2022-09-21T03:56:10.810Z,73.83
2022-09-21T04:13:56.234Z,74.24
2022-09-21T04:42:24.321Z,74.64
2022-09-21T05:03:12.165Z,74.52
2022-09-21T05:08:08.632Z,74.76
2022-09-21T05:13:05.192Z,74.78
2022-09-21T05:18:01.659Z,74.54
2022-09-21T05:23:02.423Z,74.63
2022-09-21T05:27:59.963Z,74.81
2022-09-21T05:33:01.961Z,74.78
2022-09-21T05:38:07.923Z,74.69
2022-09-21T05:43:04.698Z,74.58
2022-09-21T05:48:02.357Z,74.79
2022-09-21T05:53:49.295Z,74.93
2022-09-21T05:59:09.477Z,75.16
2022-09-21T06:04:29.334Z,75.13
2022-09-21T06:09:37.927Z,75.23
2022-09-21T06:14:46.190Z,75.21
2022-09-21T06:20:19.725Z,75.27
2022-09-21T06:25:20.700Z,75.08
2022-09-21T06:30:52.520Z,75.38
2022-09-21T06:36:12.220Z,75.23
2022-09-21T06:41:32.231Z,75.63
2022-09-21T06:46:55.960Z,75.68
2022-09-21T06:52:14.593Z,75.86
2022-09-21T06:57:31.068Z,75.63
2022-09-21T07:02:50.125Z,76.24
2022-09-21T07:20:34.499Z,76.51
2022-09-21T07:25:45.829Z,76.23
2022-09-21T07:31:08.889Z,76.32
2022-09-21T07:36:35.437Z,76.14
2022-09-21T07:41:56.167Z,76.35
2022-09-21T07:47:13.723Z,76.36
2022-09-21T07:52:13.139Z,76.33
2022-09-21T07:57:28.414Z,76.34
2022-09-21T08:02:25.209Z,76.30
2022-09-21T08:07:21.681Z,76.23
2022-09-21T08:12:19.774Z,76.20
2022-09-21T08:17:16.260Z,75.79
2022-09-21T08:22:13.949Z,75.89
2022-09-21T08:27:11.145Z,75.54
2022-09-21T08:32:07.609Z,75.41
2022-09-21T08:37:13.146Z,75.33
2022-09-21T08:42:53.902Z,75.25
2022-09-21T08:59:48.390Z,74.40
2022-09-21T09:05:32.816Z,73.96
2022-09-21T09:10:38.848Z,73.98
2022-09-21T09:15:37.833Z,73.38
2022-09-21T09:22:15.102Z,73.64
2022-09-21T09:27:09.602Z,73.15
2022-09-21T09:32:47.096Z,72.77
2022-09-21T09:43:44.502Z,72.10
2022-09-21T09:49:37.414Z,71.54
2022-09-21T09:54:48.495Z,71.41
2022-09-21T10:00:07.387Z,70.52
2022-09-21T10:17:09.159Z,68.68
2022-09-21T10:22:49.053Z,68.50
2022-09-21T10:28:09.139Z,67.44
2022-09-21T10:33:44.797Z,66.36
2022-09-21T10:39:03.879Z,65.94
2022-09-21T10:49:36.854Z,65.24
2022-09-21T10:54:38.074Z,65.36
2022-09-21T11:00:06.849Z,64.26
2022-09-21T11:05:16.407Z,63.71
2022-09-21T11:11:02.994Z,63.20
2022-09-21T11:16:28.773Z,63.05
2022-09-21T11:22:04.456Z,62.24
2022-09-21T11:27:15.396Z,61.65
2022-09-21T11:32:27.522Z,61.33
2022-09-21T11:44:01.661Z,60.62
2022-09-21T11:49:35.010Z,60.75
2022-09-21T11:54:51.420Z,60.35
2022-09-21T12:00:07.887Z,59.94
2022-09-21T12:05:17.400Z,60.37
2022-09-21T12:10:37.529Z,59.27
2022-09-21T12:15:43.165Z,59.37
2022-09-21T12:21:54.666Z,59.18
2022-09-21T12:27:24.267Z,58.22
2022-09-21T12:32:54.193Z,58.21
2022-09-21T12:38:16.528Z,57.52
2022-09-21T12:43:46.328Z,57.06
2022-09-21T12:48:48.566Z,57.15
2022-09-21T12:53:51.584Z,56.60
2022-09-21T12:59:03.890Z,55.62
2022-09-21T13:04:49.755Z,55.49
2022-09-21T13:10:00.574Z,54.97
2022-09-21T13:15:31.020Z,55.10
2022-09-21T13:20:37.910Z,54.48
2022-09-21T13:25:43.348Z,54.03
2022-09-21T13:30:51.429Z,53.79
2022-09-21T13:36:53.611Z,53.56
2022-09-21T13:42:02.908Z,53.64
2022-09-21T13:47:34.683Z,52.92
2022-09-21T13:53:00.111Z,52.34
2022-09-21T13:58:16.935Z,51.51
2022-09-21T14:03:32.897Z,51.81
2022-09-21T14:08:39.939Z,51.19
2022-09-21T14:13:47.132Z,53.26
2022-09-21T14:24:06.189Z,50.69
2022-09-21T14:29:17.322Z,50.46
2022-09-21T14:34:23.361Z,50.20
2022-09-21T14:39:24.941Z,50.54
2022-09-21T14:44:31.361Z,50.47
2022-09-21T15:20:26.433Z,49.41
2022-09-21T15:25:24.851Z,49.69
2022-09-21T15:30:28.730Z,49.35
2022-09-21T15:35:29.667Z,49.60
2022-09-21T15:40:28.203Z,49.42
2022-09-21T15:45:25.954Z,49.39
2022-09-21T15:50:23.396Z,49.64
2022-09-21T15:55:21.425Z,49.57
2022-09-21T16:00:22.057Z,49.79
2022-09-21T16:05:21.107Z,49.58
2022-09-21T16:10:29.440Z,50.13
2022-09-21T16:15:34.104Z,50.32
2022-09-21T16:20:45.647Z,50.23
2022-09-21T16:25:42.935Z,50.46
2022-09-21T16:30:49.122Z,50.14
2022-09-21T16:35:46.346Z,50.50
2022-09-21T16:40:54.025Z,50.54
2022-09-21T16:45:50.516Z,50.38
2022-09-21T16:50:47.408Z,51.55
2022-09-21T16:55:46.229Z,51.33
2022-09-21T17:00:45.166Z,51.46
2022-09-21T17:06:48.752Z,51.77
2022-09-21T17:12:12.015Z,51.56
2022-09-21T17:17:49.570Z,52.08
2022-09-21T17:35:06.356Z,52.36
2022-09-21T17:57:44.085Z,54.24
2022-09-21T18:03:17.068Z,54.67
2022-09-21T18:08:43.745Z,55.43
2022-09-21T18:14:33.926Z,55.74
2022-09-21T18:20:06.947Z,56.30
2022-09-21T18:26:06.099Z,56.70
2022-09-21T18:31:43.438Z,57.15
2022-09-21T18:37:12.672Z,57.52
2022-09-21T18:43:05.886Z,58.15
2022-09-21T18:48:50.959Z,58.62
2022-09-21T18:54:18.126Z,58.99
2022-09-21T18:59:46.985Z,59.08
2022-09-21T19:05:01.891Z,59.46
2022-09-21T19:10:47.430Z,59.98
2022-09-21T19:16:44.774Z,60.44
2022-09-21T19:22:04.278Z,60.74
2022-09-21T19:27:41.385Z,61.25
2022-09-21T19:33:06.995Z,60.99
2022-09-21T19:38:23.580Z,61.16
2022-09-21T19:44:15.761Z,61.46
2022-09-21T19:49:57.182Z,61.92
2022-09-21T20:08:10.358Z,63.08
2022-09-21T20:57:06.334Z,64.91
2022-09-21T21:02:27.597Z,65.21
2022-09-21T21:08:29.428Z,65.51
2022-09-21T21:32:54.079Z,66.42
2022-09-21T21:52:14.884Z,66.92
2022-09-21T21:57:32.648Z,66.85
2022-09-21T22:09:31.978Z,67.29
2022-09-21T22:39:43.575Z,67.84
2022-09-21T23:23:47.112Z,68.95
